sensor_id;sensor_type;location;lat;lon;timestamp;P1;durP1;ratioP1;P2;durP2;ratioP2
10725;SDS011;5414;59.782;16.378;2023-03-01T00:02:17;1.30;;;0.43;;
10725;SDS011;5414;59.782;16.378;2023-03-01T00:04:43;0.90;;;0.47;;
10725;SDS011;5414;59.782;16.378;2023-03-01T00:07:09;0.97;;;0.50;;
10725;SDS011;5414;59.782;16.378;2023-03-01T00:09:36;0.63;;;0.40;;
10725;SDS011;5414;59.782;16.378;2023-03-01T00:12:02;0.97;;;0.40;;
10725;SDS011;5414;59.782;16.378;2023-03-01T00:14:28;1.10;;;0.40;;
10725;SDS011;5414;59.782;16.378;2023-03-01T00:16:54;0.50;;;0.40;;
10725;SDS011;5414;59.782;16.378;2023-03-01T00:19:20;1.87;;;0.47;;
10725;SDS011;5414;59.782;16.378;2023-03-01T00:21:47;0.67;;;0.50;;
10725;SDS011;5414;59.782;16.378;2023-03-01T00:24:13;1.13;;;0.50;;
10725;SDS011;5414;59.782;16.378;2023-03-01T00:26:39;0.77;;;0.40;;
10725;SDS011;5414;59.782;16.378;2023-03-01T00:29:05;1.53;;;0.60;;
10725;SDS011;5414;59.782;16.378;2023-03-01T00:31:32;0.63;;;0.40;;
10725;SDS011;5414;59.782;16.378;2023-03-01T00:34:02;0.50;;;0.40;;
10725;SDS011;5414;59.782;16.378;2023-03-01T00:36:30;0.40;;;0.40;;
10725;SDS011;5414;59.782;16.378;2023-03-01T00:38:56;0.60;;;0.40;;
10725;SDS011;5414;59.782;16.378;2023-03-01T00:41:23;0.70;;;0.50;;
10725;SDS011;5414;59.782;16.378;2023-03-01T00:43:51;0.70;;;0.37;;
10725;SDS011;5414;59.782;16.378;2023-03-01T00:46:19;0.40;;;0.40;;
10725;SDS011;5414;59.782;16.378;2023-03-01T00:48:45;0.50;;;0.37;;
10725;SDS011;5414;59.782;16.378;2023-03-01T00:51:12;0.40;;;0.40;;
10725;SDS011;5414;59.782;16.378;2023-03-01T00:53:39;0.63;;;0.60;;
10725;SDS011;5414;59.782;16.378;2023-03-01T00:56:06;0.40;;;0.40;;
10725;SDS011;5414;59.782;16.378;2023-03-01T00:58:32;0.53;;;0.40;;
10725;SDS011;5414;59.782;16.378;2023-03-01T01:00:58;0.60;;;0.40;;
10725;SDS011;5414;59.782;16.378;2023-03-01T01:03:24;0.57;;;0.40;;
10725;SDS011;5414;59.782;16.378;2023-03-01T01:05:51;0.47;;;0.33;;
10725;SDS011;5414;59.782;16.378;2023-03-01T01:08:17;1.03;;;0.40;;
10725;SDS011;5414;59.782;16.378;2023-03-01T01:10:44;0.83;;;0.40;;
10725;SDS011;5414;59.782;16.378;2023-03-01T01:13:10;0.70;;;0.50;;
10725;SDS011;5414;59.782;16.378;2023-03-01T01:15:36;2.00;;;0.43;;
10725;SDS011;5414;59.782;16.378;2023-03-01T01:18:02;0.50;;;0.30;;
10725;SDS011;5414;59.782;16.378;2023-03-01T01:20:28;1.03;;;0.40;;
10725;SDS011;5414;59.782;16.378;2023-03-01T01:22:54;1.50;;;0.50;;
10725;SDS011;5414;59.782;16.378;2023-03-01T01:25:20;2.00;;;0.50;;
10725;SDS011;5414;59.782;16.378;2023-03-01T01:27:49;1.03;;;0.40;;
10725;SDS011;5414;59.782;16.378;2023-03-01T01:30:15;0.60;;;0.30;;
10725;SDS011;5414;59.782;16.378;2023-03-01T01:32:41;2.20;;;0.50;;
10725;SDS011;5414;59.782;16.378;2023-03-01T01:35:07;0.73;;;0.40;;
10725;SDS011;5414;59.782;16.378;2023-03-01T01:37:34;1.17;;;0.37;;
10725;SDS011;5414;59.782;16.378;2023-03-01T01:40:00;0.40;;;0.20;;
10725;SDS011;5414;59.782;16.378;2023-03-01T01:42:29;0.57;;;0.33;;
10725;SDS011;5414;59.782;16.378;2023-03-01T01:45:40;1.60;;;0.50;;
10725;SDS011;5414;59.782;16.378;2023-03-01T01:47:41;1.17;;;0.40;;
10725;SDS011;5414;59.782;16.378;2023-03-01T01:50:08;1.43;;;0.40;;
10725;SDS011;5414;59.782;16.378;2023-03-01T01:52:40;0.37;;;0.30;;
10725;SDS011;5414;59.782;16.378;2023-03-01T01:55:14;1.07;;;0.50;;
10725;SDS011;5414;59.782;16.378;2023-03-01T01:57:43;0.97;;;0.40;;
10725;SDS011;5414;59.782;16.378;2023-03-01T02:00:15;0.50;;;0.50;;
10725;SDS011;5414;59.782;16.378;2023-03-01T02:02:41;0.33;;;0.33;;
10725;SDS011;5414;59.782;16.378;2023-03-01T02:05:20;0.50;;;0.40;;
10725;SDS011;5414;59.782;16.378;2023-03-01T02:07:48;0.67;;;0.40;;
10725;SDS011;5414;59.782;16.378;2023-03-01T02:10:14;0.70;;;0.30;;
10725;SDS011;5414;59.782;16.378;2023-03-01T02:12:41;2.00;;;0.50;;
10725;SDS011;5414;59.782;16.378;2023-03-01T02:15:07;1.27;;;0.40;;
10725;SDS011;5414;59.782;16.378;2023-03-01T02:17:33;1.03;;;0.40;;
10725;SDS011;5414;59.782;16.378;2023-03-01T02:22:35;1.03;;;0.40;;
10725;SDS011;5414;59.782;16.378;2023-03-01T02:30:18;0.43;;;0.30;;
10725;SDS011;5414;59.782;16.378;2023-03-01T02:32:44;0.47;;;0.43;;
10725;SDS011;5414;59.782;16.378;2023-03-01T02:35:12;0.87;;;0.50;;
10725;SDS011;5414;59.782;16.378;2023-03-01T02:37:39;1.23;;;0.40;;
10725;SDS011;5414;59.782;16.378;2023-03-01T02:40:06;0.80;;;0.50;;
10725;SDS011;5414;59.782;16.378;2023-03-01T02:42:36;1.43;;;0.57;;
10725;SDS011;5414;59.782;16.378;2023-03-01T02:45:05;0.70;;;0.40;;
10725;SDS011;5414;59.782;16.378;2023-03-01T02:47:31;0.87;;;0.37;;
10725;SDS011;5414;59.782;16.378;2023-03-01T02:49:58;1.03;;;0.47;;
10725;SDS011;5414;59.782;16.378;2023-03-01T02:55:13;0.40;;;0.40;;
10725;SDS011;5414;59.782;16.378;2023-03-01T02:57:40;0.37;;;0.37;;
10725;SDS011;5414;59.782;16.378;2023-03-01T03:00:08;0.40;;;0.40;;
10725;SDS011;5414;59.782;16.378;2023-03-01T03:02:35;0.47;;;0.47;;
10725;SDS011;5414;59.782;16.378;2023-03-01T03:05:09;1.47;;;0.60;;
10725;SDS011;5414;59.782;16.378;2023-03-01T03:07:36;0.70;;;0.40;;
10725;SDS011;5414;59.782;16.378;2023-03-01T03:10:03;0.50;;;0.40;;
10725;SDS011;5414;59.782;16.378;2023-03-01T03:12:29;1.53;;;0.40;;
10725;SDS011;5414;59.782;16.378;2023-03-01T03:14:55;0.73;;;0.40;;
10725;SDS011;5414;59.782;16.378;2023-03-01T03:17:21;1.10;;;0.43;;
10725;SDS011;5414;59.782;16.378;2023-03-01T03:19:47;0.70;;;0.40;;
10725;SDS011;5414;59.782;16.378;2023-03-01T03:22:14;0.87;;;0.37;;
10725;SDS011;5414;59.782;16.378;2023-03-01T03:24:40;0.40;;;0.40;;
10725;SDS011;5414;59.782;16.378;2023-03-01T03:27:06;0.30;;;0.30;;
10725;SDS011;5414;59.782;16.378;2023-03-01T03:29:32;1.10;;;0.30;;
10725;SDS011;5414;59.782;16.378;2023-03-01T03:31:59;0.40;;;0.40;;
10725;SDS011;5414;59.782;16.378;2023-03-01T03:34:25;0.43;;;0.37;;
10725;SDS011;5414;59.782;16.378;2023-03-01T03:36:55;1.10;;;0.40;;
10725;SDS011;5414;59.782;16.378;2023-03-01T03:39:27;1.13;;;0.50;;
10725;SDS011;5414;59.782;16.378;2023-03-01T03:41:54;2.00;;;0.53;;
10725;SDS011;5414;59.782;16.378;2023-03-01T03:44:20;1.63;;;0.50;;
10725;SDS011;5414;59.782;16.378;2023-03-01T03:46:46;3.13;;;0.40;;
10725;SDS011;5414;59.782;16.378;2023-03-01T03:49:12;0.70;;;0.40;;
10725;SDS011;5414;59.782;16.378;2023-03-01T03:51:38;0.53;;;0.40;;
10725;SDS011;5414;59.782;16.378;2023-03-01T03:54:04;0.57;;;0.30;;
10725;SDS011;5414;59.782;16.378;2023-03-01T03:56:30;1.00;;;0.40;;
10725;SDS011;5414;59.782;16.378;2023-03-01T03:58:56;0.77;;;0.43;;
10725;SDS011;5414;59.782;16.378;2023-03-01T04:01:23;1.03;;;0.60;;
10725;SDS011;5414;59.782;16.378;2023-03-01T04:03:49;1.43;;;0.50;;
10725;SDS011;5414;59.782;16.378;2023-03-01T04:06:19;0.40;;;0.37;;
10725;SDS011;5414;59.782;16.378;2023-03-01T04:08:45;0.83;;;0.50;;
10725;SDS011;5414;59.782;16.378;2023-03-01T04:11:11;0.57;;;0.57;;
10725;SDS011;5414;59.782;16.378;2023-03-01T04:13:54;0.53;;;0.40;;
10725;SDS011;5414;59.782;16.378;2023-03-01T04:16:20;1.33;;;0.40;;
10725;SDS011;5414;59.782;16.378;2023-03-01T04:18:47;0.83;;;0.47;;
10725;SDS011;5414;59.782;16.378;2023-03-01T04:21:13;0.40;;;0.30;;
10725;SDS011;5414;59.782;16.378;2023-03-01T04:23:39;1.17;;;0.30;;
10725;SDS011;5414;59.782;16.378;2023-03-01T04:26:06;0.47;;;0.40;;
10725;SDS011;5414;59.782;16.378;2023-03-01T04:28:36;0.83;;;0.40;;
10725;SDS011;5414;59.782;16.378;2023-03-01T04:31:04;0.73;;;0.40;;
10725;SDS011;5414;59.782;16.378;2023-03-01T04:33:38;1.40;;;0.63;;
10725;SDS011;5414;59.782;16.378;2023-03-01T04:36:04;0.47;;;0.40;;
10725;SDS011;5414;59.782;16.378;2023-03-01T04:38:33;0.47;;;0.33;;
10725;SDS011;5414;59.782;16.378;2023-03-01T04:41:01;1.10;;;0.40;;
10725;SDS011;5414;59.782;16.378;2023-03-01T04:43:28;1.00;;;0.40;;
10725;SDS011;5414;59.782;16.378;2023-03-01T04:45:54;0.93;;;0.40;;
10725;SDS011;5414;59.782;16.378;2023-03-01T04:48:20;0.97;;;0.40;;
10725;SDS011;5414;59.782;16.378;2023-03-01T04:50:46;1.70;;;0.30;;
10725;SDS011;5414;59.782;16.378;2023-03-01T04:53:12;0.53;;;0.30;;
10725;SDS011;5414;59.782;16.378;2023-03-01T04:55:38;0.90;;;0.57;;
10725;SDS011;5414;59.782;16.378;2023-03-01T04:58:04;1.70;;;0.50;;
10725;SDS011;5414;59.782;16.378;2023-03-01T05:00:30;2.17;;;0.50;;
10725;SDS011;5414;59.782;16.378;2023-03-01T05:02:57;0.70;;;0.50;;
10725;SDS011;5414;59.782;16.378;2023-03-01T05:05:34;2.23;;;0.30;;
10725;SDS011;5414;59.782;16.378;2023-03-01T05:08:02;1.00;;;0.40;;
10725;SDS011;5414;59.782;16.378;2023-03-01T05:10:29;0.90;;;0.50;;
10725;SDS011;5414;59.782;16.378;2023-03-01T05:12:56;1.77;;;0.40;;
10725;SDS011;5414;59.782;16.378;2023-03-01T05:15:22;1.17;;;0.50;;
10725;SDS011;5414;59.782;16.378;2023-03-01T05:17:53;1.40;;;0.40;;
10725;SDS011;5414;59.782;16.378;2023-03-01T05:20:19;15.53;;;12.37;;
10725;SDS011;5414;59.782;16.378;2023-03-01T05:22:49;11.80;;;10.67;;
10725;SDS011;5414;59.782;16.378;2023-03-01T05:25:15;6.00;;;5.40;;
10725;SDS011;5414;59.782;16.378;2023-03-01T05:27:41;2.93;;;2.13;;
10725;SDS011;5414;59.782;16.378;2023-03-01T05:30:08;1.00;;;0.80;;
10725;SDS011;5414;59.782;16.378;2023-03-01T05:32:41;2.00;;;1.53;;
10725;SDS011;5414;59.782;16.378;2023-03-01T05:35:08;0.67;;;0.57;;
10725;SDS011;5414;59.782;16.378;2023-03-01T05:37:34;0.73;;;0.73;;
10725;SDS011;5414;59.782;16.378;2023-03-01T05:40:00;1.57;;;1.30;;
10725;SDS011;5414;59.782;16.378;2023-03-01T05:42:28;3.57;;;2.90;;
10725;SDS011;5414;59.782;16.378;2023-03-01T05:44:54;5.13;;;4.53;;
10725;SDS011;5414;59.782;16.378;2023-03-01T05:47:20;4.40;;;2.90;;
10725;SDS011;5414;59.782;16.378;2023-03-01T05:49:46;1.37;;;1.27;;
10725;SDS011;5414;59.782;16.378;2023-03-01T05:52:12;2.57;;;1.30;;
10725;SDS011;5414;59.782;16.378;2023-03-01T05:54:38;1.10;;;1.00;;
10725;SDS011;5414;59.782;16.378;2023-03-01T05:57:04;2.00;;;1.00;;
10725;SDS011;5414;59.782;16.378;2023-03-01T05:59:30;1.03;;;0.63;;
10725;SDS011;5414;59.782;16.378;2023-03-01T06:01:56;1.90;;;0.70;;
10725;SDS011;5414;59.782;16.378;2023-03-01T06:04:22;1.20;;;0.50;;
10725;SDS011;5414;59.782;16.378;2023-03-01T06:06:48;2.07;;;0.80;;
10725;SDS011;5414;59.782;16.378;2023-03-01T06:09:14;1.37;;;0.70;;
10725;SDS011;5414;59.782;16.378;2023-03-01T06:11:40;1.20;;;0.57;;
10725;SDS011;5414;59.782;16.378;2023-03-01T06:14:07;1.63;;;1.20;;
10725;SDS011;5414;59.782;16.378;2023-03-01T06:16:33;1.07;;;0.90;;
10725;SDS011;5414;59.782;16.378;2023-03-01T06:18:59;1.80;;;0.50;;
10725;SDS011;5414;59.782;16.378;2023-03-01T06:21:25;1.33;;;0.60;;
10725;SDS011;5414;59.782;16.378;2023-03-01T06:23:51;3.70;;;3.40;;
10725;SDS011;5414;59.782;16.378;2023-03-01T06:26:17;2.57;;;1.50;;
10725;SDS011;5414;59.782;16.378;2023-03-01T06:28:43;0.50;;;0.50;;
10725;SDS011;5414;59.782;16.378;2023-03-01T06:31:11;1.67;;;0.50;;
10725;SDS011;5414;59.782;16.378;2023-03-01T06:33:37;1.00;;;0.50;;
10725;SDS011;5414;59.782;16.378;2023-03-01T06:36:03;1.73;;;0.40;;
10725;SDS011;5414;59.782;16.378;2023-03-01T06:38:29;0.70;;;0.40;;
10725;SDS011;5414;59.782;16.378;2023-03-01T06:40:55;1.00;;;0.50;;
10725;SDS011;5414;59.782;16.378;2023-03-01T06:43:22;2.20;;;1.60;;
10725;SDS011;5414;59.782;16.378;2023-03-01T06:45:48;2.07;;;1.07;;
10725;SDS011;5414;59.782;16.378;2023-03-01T06:48:14;3.23;;;0.63;;
10725;SDS011;5414;59.782;16.378;2023-03-01T06:50:40;0.67;;;0.67;;
10725;SDS011;5414;59.782;16.378;2023-03-01T06:53:07;1.80;;;1.20;;
10725;SDS011;5414;59.782;16.378;2023-03-01T06:55:33;1.63;;;1.13;;
10725;SDS011;5414;59.782;16.378;2023-03-01T06:57:59;1.00;;;1.00;;
10725;SDS011;5414;59.782;16.378;2023-03-01T07:00:26;3.87;;;3.67;;
10725;SDS011;5414;59.782;16.378;2023-03-01T07:02:52;1.63;;;0.80;;
10725;SDS011;5414;59.782;16.378;2023-03-01T07:05:18;1.00;;;0.60;;
10725;SDS011;5414;59.782;16.378;2023-03-01T07:07:45;2.40;;;2.30;;
10725;SDS011;5414;59.782;16.378;2023-03-01T07:10:11;3.97;;;3.67;;
10725;SDS011;5414;59.782;16.378;2023-03-01T07:12:37;2.23;;;1.17;;
10725;SDS011;5414;59.782;16.378;2023-03-01T07:15:03;1.33;;;0.50;;
10725;SDS011;5414;59.782;16.378;2023-03-01T07:17:30;1.33;;;0.70;;
10725;SDS011;5414;59.782;16.378;2023-03-01T07:19:56;3.67;;;3.37;;
10725;SDS011;5414;59.782;16.378;2023-03-01T07:22:22;2.30;;;0.93;;
10725;SDS011;5414;59.782;16.378;2023-03-01T07:24:48;5.77;;;3.53;;
10725;SDS011;5414;59.782;16.378;2023-03-01T07:27:14;1.30;;;1.20;;
10725;SDS011;5414;59.782;16.378;2023-03-01T07:29:40;1.83;;;1.10;;
10725;SDS011;5414;59.782;16.378;2023-03-01T07:32:06;1.43;;;0.50;;
10725;SDS011;5414;59.782;16.378;2023-03-01T07:34:32;4.43;;;1.00;;
10725;SDS011;5414;59.782;16.378;2023-03-01T07:36:58;2.40;;;0.50;;
10725;SDS011;5414;59.782;16.378;2023-03-01T07:39:24;1.30;;;0.40;;
10725;SDS011;5414;59.782;16.378;2023-03-01T07:41:51;0.60;;;0.50;;
10725;SDS011;5414;59.782;16.378;2023-03-01T07:44:17;4.03;;;0.87;;
10725;SDS011;5414;59.782;16.378;2023-03-01T07:46:43;0.53;;;0.30;;
10725;SDS011;5414;59.782;16.378;2023-03-01T07:49:09;2.13;;;0.70;;
10725;SDS011;5414;59.782;16.378;2023-03-01T07:51:36;1.20;;;0.50;;
10725;SDS011;5414;59.782;16.378;2023-03-01T07:54:02;1.67;;;0.50;;
10725;SDS011;5414;59.782;16.378;2023-03-01T07:56:28;0.47;;;0.47;;
10725;SDS011;5414;59.782;16.378;2023-03-01T07:58:54;1.07;;;0.50;;
10725;SDS011;5414;59.782;16.378;2023-03-01T08:01:20;1.03;;;0.47;;
10725;SDS011;5414;59.782;16.378;2023-03-01T08:03:46;0.43;;;0.30;;
10725;SDS011;5414;59.782;16.378;2023-03-01T08:06:13;0.80;;;0.40;;
10725;SDS011;5414;59.782;16.378;2023-03-01T08:08:40;2.67;;;0.53;;
10725;SDS011;5414;59.782;16.378;2023-03-01T08:11:06;0.30;;;0.30;;
10725;SDS011;5414;59.782;16.378;2023-03-01T08:13:32;0.93;;;0.33;;
10725;SDS011;5414;59.782;16.378;2023-03-01T08:16:06;0.67;;;0.40;;
10725;SDS011;5414;59.782;16.378;2023-03-01T08:18:32;1.20;;;0.63;;
10725;SDS011;5414;59.782;16.378;2023-03-01T08:21:02;0.70;;;0.30;;
10725;SDS011;5414;59.782;16.378;2023-03-01T08:23:28;0.40;;;0.30;;
10725;SDS011;5414;59.782;16.378;2023-03-01T08:25:55;0.53;;;0.30;;
10725;SDS011;5414;59.782;16.378;2023-03-01T08:28:21;1.17;;;0.77;;
10725;SDS011;5414;59.782;16.378;2023-03-01T08:30:47;0.30;;;0.30;;
10725;SDS011;5414;59.782;16.378;2023-03-01T08:33:13;0.50;;;0.30;;
10725;SDS011;5414;59.782;16.378;2023-03-01T08:35:39;0.60;;;0.40;;
10725;SDS011;5414;59.782;16.378;2023-03-01T08:38:05;0.20;;;0.20;;
10725;SDS011;5414;59.782;16.378;2023-03-01T08:40:31;0.27;;;0.27;;
10725;SDS011;5414;59.782;16.378;2023-03-01T08:42:57;0.40;;;0.30;;
10725;SDS011;5414;59.782;16.378;2023-03-01T08:45:23;0.33;;;0.30;;
10725;SDS011;5414;59.782;16.378;2023-03-01T08:47:51;0.73;;;0.40;;
10725;SDS011;5414;59.782;16.378;2023-03-01T08:50:18;0.70;;;0.40;;
10725;SDS011;5414;59.782;16.378;2023-03-01T08:52:44;0.50;;;0.50;;
10725;SDS011;5414;59.782;16.378;2023-03-01T08:55:10;0.40;;;0.30;;
10725;SDS011;5414;59.782;16.378;2023-03-01T08:57:36;0.70;;;0.40;;
10725;SDS011;5414;59.782;16.378;2023-03-01T09:00:02;0.60;;;0.30;;
10725;SDS011;5414;59.782;16.378;2023-03-01T09:02:33;0.40;;;0.30;;
10725;SDS011;5414;59.782;16.378;2023-03-01T09:04:59;0.97;;;0.30;;
10725;SDS011;5414;59.782;16.378;2023-03-01T09:07:26;0.30;;;0.30;;
10725;SDS011;5414;59.782;16.378;2023-03-01T09:09:55;0.30;;;0.30;;
10725;SDS011;5414;59.782;16.378;2023-03-01T09:12:21;0.57;;;0.47;;
10725;SDS011;5414;59.782;16.378;2023-03-01T09:14:47;1.13;;;0.30;;
10725;SDS011;5414;59.782;16.378;2023-03-01T09:17:13;0.50;;;0.30;;
10725;SDS011;5414;59.782;16.378;2023-03-01T09:19:39;1.03;;;0.60;;
10725;SDS011;5414;59.782;16.378;2023-03-01T09:22:05;3.03;;;1.70;;
10725;SDS011;5414;59.782;16.378;2023-03-01T09:24:31;0.50;;;0.30;;
10725;SDS011;5414;59.782;16.378;2023-03-01T09:26:57;0.77;;;0.30;;
10725;SDS011;5414;59.782;16.378;2023-03-01T09:29:23;0.20;;;0.20;;
10725;SDS011;5414;59.782;16.378;2023-03-01T09:31:50;0.63;;;0.40;;
10725;SDS011;5414;59.782;16.378;2023-03-01T09:34:19;0.27;;;0.27;;
10725;SDS011;5414;59.782;16.378;2023-03-01T09:36:48;0.83;;;0.30;;
10725;SDS011;5414;59.782;16.378;2023-03-01T09:39:14;0.77;;;0.30;;
10725;SDS011;5414;59.782;16.378;2023-03-01T09:41:47;1.10;;;0.57;;
10725;SDS011;5414;59.782;16.378;2023-03-01T09:46:50;1.97;;;1.20;;
10725;SDS011;5414;59.782;16.378;2023-03-01T09:49:35;0.33;;;0.30;;
10725;SDS011;5414;59.782;16.378;2023-03-01T09:52:23;0.67;;;0.40;;
10725;SDS011;5414;59.782;16.378;2023-03-01T09:54:52;0.73;;;0.30;;
10725;SDS011;5414;59.782;16.378;2023-03-01T10:04:47;0.20;;;0.20;;
10725;SDS011;5414;59.782;16.378;2023-03-01T10:07:35;0.30;;;0.20;;
10725;SDS011;5414;59.782;16.378;2023-03-01T10:10:07;0.60;;;0.37;;
10725;SDS011;5414;59.782;16.378;2023-03-01T10:12:35;0.77;;;0.30;;
10725;SDS011;5414;59.782;16.378;2023-03-01T10:17:33;0.60;;;0.40;;
10725;SDS011;5414;59.782;16.378;2023-03-01T10:20:10;2.63;;;1.20;;
10725;SDS011;5414;59.782;16.378;2023-03-01T10:22:40;0.50;;;0.50;;
10725;SDS011;5414;59.782;16.378;2023-03-01T10:25:06;0.53;;;0.30;;
10725;SDS011;5414;59.782;16.378;2023-03-01T10:27:43;1.30;;;0.40;;
10725;SDS011;5414;59.782;16.378;2023-03-01T10:32:38;0.20;;;0.20;;
10725;SDS011;5414;59.782;16.378;2023-03-01T10:38:24;1.83;;;0.30;;
10725;SDS011;5414;59.782;16.378;2023-03-01T10:40:32;0.30;;;0.23;;
10725;SDS011;5414;59.782;16.378;2023-03-01T10:42:59;0.63;;;0.30;;
10725;SDS011;5414;59.782;16.378;2023-03-01T10:50:44;0.30;;;0.30;;
10725;SDS011;5414;59.782;16.378;2023-03-01T10:53:47;0.40;;;0.30;;
10725;SDS011;5414;59.782;16.378;2023-03-01T10:56:07;0.47;;;0.30;;
10725;SDS011;5414;59.782;16.378;2023-03-01T10:58:34;0.70;;;0.40;;
10725;SDS011;5414;59.782;16.378;2023-03-01T11:01:01;1.07;;;0.30;;
10725;SDS011;5414;59.782;16.378;2023-03-01T11:03:28;0.40;;;0.30;;
10725;SDS011;5414;59.782;16.378;2023-03-01T11:08:42;0.20;;;0.20;;
10725;SDS011;5414;59.782;16.378;2023-03-01T11:13:50;0.40;;;0.33;;
10725;SDS011;5414;59.782;16.378;2023-03-01T11:16:17;0.27;;;0.23;;
10725;SDS011;5414;59.782;16.378;2023-03-01T11:18:55;0.37;;;0.37;;
10725;SDS011;5414;59.782;16.378;2023-03-01T11:21:21;0.20;;;0.20;;
10725;SDS011;5414;59.782;16.378;2023-03-01T11:23:47;0.70;;;0.40;;
10725;SDS011;5414;59.782;16.378;2023-03-01T11:26:13;0.63;;;0.30;;
10725;SDS011;5414;59.782;16.378;2023-03-01T11:28:40;0.23;;;0.23;;
10725;SDS011;5414;59.782;16.378;2023-03-01T11:31:08;0.63;;;0.30;;
10725;SDS011;5414;59.782;16.378;2023-03-01T11:36:16;0.77;;;0.40;;
10725;SDS011;5414;59.782;16.378;2023-03-01T11:38:42;0.63;;;0.30;;
10725;SDS011;5414;59.782;16.378;2023-03-01T11:41:16;1.60;;;0.30;;
10725;SDS011;5414;59.782;16.378;2023-03-01T11:43:51;0.40;;;0.30;;
10725;SDS011;5414;59.782;16.378;2023-03-01T11:49:05;0.63;;;0.30;;
10725;SDS011;5414;59.782;16.378;2023-03-01T11:57:00;0.27;;;0.20;;
10725;SDS011;5414;59.782;16.378;2023-03-01T12:10:10;0.20;;;0.20;;
10725;SDS011;5414;59.782;16.378;2023-03-01T12:17:58;0.57;;;0.27;;
10725;SDS011;5414;59.782;16.378;2023-03-01T12:25:36;0.20;;;0.20;;
10725;SDS011;5414;59.782;16.378;2023-03-01T12:28:26;0.90;;;0.40;;
10725;SDS011;5414;59.782;16.378;2023-03-01T12:33:49;0.63;;;0.20;;
10725;SDS011;5414;59.782;16.378;2023-03-01T12:44:13;0.50;;;0.20;;
10725;SDS011;5414;59.782;16.378;2023-03-01T12:49:19;0.40;;;0.30;;
10725;SDS011;5414;59.782;16.378;2023-03-01T12:52:35;0.20;;;0.20;;
10725;SDS011;5414;59.782;16.378;2023-03-01T12:54:35;0.30;;;0.30;;
10725;SDS011;5414;59.782;16.378;2023-03-01T12:59:52;0.27;;;0.27;;
10725;SDS011;5414;59.782;16.378;2023-03-01T13:03:10;0.70;;;0.30;;
10725;SDS011;5414;59.782;16.378;2023-03-01T13:20:16;0.27;;;0.20;;
10725;SDS011;5414;59.782;16.378;2023-03-01T13:22:43;0.10;;;0.10;;
10725;SDS011;5414;59.782;16.378;2023-03-01T13:25:17;0.20;;;0.20;;
10725;SDS011;5414;59.782;16.378;2023-03-01T13:27:45;0.37;;;0.30;;
10725;SDS011;5414;59.782;16.378;2023-03-01T13:33:24;0.40;;;0.20;;
10725;SDS011;5414;59.782;16.378;2023-03-01T13:35:43;0.30;;;0.30;;
10725;SDS011;5414;59.782;16.378;2023-03-01T13:43:27;0.30;;;0.30;;
10725;SDS011;5414;59.782;16.378;2023-03-01T13:45:53;0.50;;;0.30;;
10725;SDS011;5414;59.782;16.378;2023-03-01T13:48:24;0.43;;;0.40;;
10725;SDS011;5414;59.782;16.378;2023-03-01T13:50:51;0.70;;;0.30;;
10725;SDS011;5414;59.782;16.378;2023-03-01T13:53:19;0.30;;;0.30;;
10725;SDS011;5414;59.782;16.378;2023-03-01T13:55:50;0.77;;;0.30;;
10725;SDS011;5414;59.782;16.378;2023-03-01T13:58:22;0.20;;;0.20;;
10725;SDS011;5414;59.782;16.378;2023-03-01T14:01:03;0.40;;;0.30;;
10725;SDS011;5414;59.782;16.378;2023-03-01T14:03:30;0.30;;;0.30;;
10725;SDS011;5414;59.782;16.378;2023-03-01T14:06:04;0.80;;;0.30;;
10725;SDS011;5414;59.782;16.378;2023-03-01T14:08:32;0.47;;;0.30;;
10725;SDS011;5414;59.782;16.378;2023-03-01T14:19:27;1.50;;;0.33;;
10725;SDS011;5414;59.782;16.378;2023-03-01T14:21:27;0.40;;;0.30;;
10725;SDS011;5414;59.782;16.378;2023-03-01T14:23:53;0.60;;;0.30;;
10725;SDS011;5414;59.782;16.378;2023-03-01T14:26:20;0.30;;;0.30;;
10725;SDS011;5414;59.782;16.378;2023-03-01T14:28:46;0.47;;;0.30;;
10725;SDS011;5414;59.782;16.378;2023-03-01T14:31:32;0.20;;;0.20;;
10725;SDS011;5414;59.782;16.378;2023-03-01T14:33:59;0.30;;;0.30;;
10725;SDS011;5414;59.782;16.378;2023-03-01T14:36:27;1.10;;;0.50;;
10725;SDS011;5414;59.782;16.378;2023-03-01T14:38:53;0.37;;;0.30;;
10725;SDS011;5414;59.782;16.378;2023-03-01T14:41:23;0.30;;;0.20;;
10725;SDS011;5414;59.782;16.378;2023-03-01T14:44:00;1.03;;;0.30;;
10725;SDS011;5414;59.782;16.378;2023-03-01T14:46:28;0.50;;;0.40;;
10725;SDS011;5414;59.782;16.378;2023-03-01T14:48:57;0.50;;;0.33;;
10725;SDS011;5414;59.782;16.378;2023-03-01T14:51:26;0.53;;;0.37;;
10725;SDS011;5414;59.782;16.378;2023-03-01T14:53:52;0.30;;;0.30;;
10725;SDS011;5414;59.782;16.378;2023-03-01T14:56:19;0.37;;;0.30;;
10725;SDS011;5414;59.782;16.378;2023-03-01T14:58:45;0.20;;;0.20;;
10725;SDS011;5414;59.782;16.378;2023-03-01T15:01:16;0.20;;;0.20;;
10725;SDS011;5414;59.782;16.378;2023-03-01T15:03:43;1.30;;;0.40;;
10725;SDS011;5414;59.782;16.378;2023-03-01T15:06:09;0.30;;;0.30;;
10725;SDS011;5414;59.782;16.378;2023-03-01T15:08:37;0.97;;;0.40;;
10725;SDS011;5414;59.782;16.378;2023-03-01T15:13:39;1.90;;;0.50;;
10725;SDS011;5414;59.782;16.378;2023-03-01T15:18:48;0.43;;;0.33;;
10725;SDS011;5414;59.782;16.378;2023-03-01T15:23:40;0.83;;;0.43;;
10725;SDS011;5414;59.782;16.378;2023-03-01T15:26:06;0.83;;;0.43;;
10725;SDS011;5414;59.782;16.378;2023-03-01T15:28:49;1.10;;;0.40;;
10725;SDS011;5414;59.782;16.378;2023-03-01T15:31:23;0.37;;;0.37;;
10725;SDS011;5414;59.782;16.378;2023-03-01T15:33:49;1.57;;;0.37;;
10725;SDS011;5414;59.782;16.378;2023-03-01T15:38:57;0.80;;;0.30;;
10725;SDS011;5414;59.782;16.378;2023-03-01T15:41:31;0.50;;;0.30;;
10725;SDS011;5414;59.782;16.378;2023-03-01T15:44:13;0.47;;;0.33;;
10725;SDS011;5414;59.782;16.378;2023-03-01T15:46:40;0.50;;;0.30;;
10725;SDS011;5414;59.782;16.378;2023-03-01T15:51:46;0.77;;;0.40;;
10725;SDS011;5414;59.782;16.378;2023-03-01T15:54:17;0.43;;;0.30;;
10725;SDS011;5414;59.782;16.378;2023-03-01T15:56:44;0.67;;;0.43;;
10725;SDS011;5414;59.782;16.378;2023-03-01T15:59:10;1.13;;;0.30;;
10725;SDS011;5414;59.782;16.378;2023-03-01T16:01:38;0.57;;;0.37;;
10725;SDS011;5414;59.782;16.378;2023-03-01T16:04:04;0.20;;;0.20;;
10725;SDS011;5414;59.782;16.378;2023-03-01T16:06:30;0.60;;;0.40;;
10725;SDS011;5414;59.782;16.378;2023-03-01T16:08:56;1.00;;;0.50;;
10725;SDS011;5414;59.782;16.378;2023-03-01T16:11:22;0.60;;;0.37;;
10725;SDS011;5414;59.782;16.378;2023-03-01T16:13:48;0.70;;;0.50;;
10725;SDS011;5414;59.782;16.378;2023-03-01T16:16:15;0.80;;;0.47;;
10725;SDS011;5414;59.782;16.378;2023-03-01T16:18:45;1.07;;;0.40;;
10725;SDS011;5414;59.782;16.378;2023-03-01T16:21:21;0.97;;;0.50;;
10725;SDS011;5414;59.782;16.378;2023-03-01T16:23:48;0.27;;;0.27;;
10725;SDS011;5414;59.782;16.378;2023-03-01T16:26:14;1.07;;;0.30;;
10725;SDS011;5414;59.782;16.378;2023-03-01T16:28:41;0.43;;;0.43;;
10725;SDS011;5414;59.782;16.378;2023-03-01T16:31:07;0.70;;;0.30;;
10725;SDS011;5414;59.782;16.378;2023-03-01T16:33:33;0.87;;;0.40;;
10725;SDS011;5414;59.782;16.378;2023-03-01T16:36:00;0.87;;;0.40;;
10725;SDS011;5414;59.782;16.378;2023-03-01T16:38:27;2.03;;;0.60;;
10725;SDS011;5414;59.782;16.378;2023-03-01T16:40:53;0.73;;;0.43;;
10725;SDS011;5414;59.782;16.378;2023-03-01T16:43:19;0.63;;;0.43;;
10725;SDS011;5414;59.782;16.378;2023-03-01T16:45:45;0.30;;;0.30;;
10725;SDS011;5414;59.782;16.378;2023-03-01T16:48:11;0.37;;;0.30;;
10725;SDS011;5414;59.782;16.378;2023-03-01T16:50:38;0.40;;;0.30;;
10725;SDS011;5414;59.782;16.378;2023-03-01T16:53:04;0.40;;;0.37;;
10725;SDS011;5414;59.782;16.378;2023-03-01T16:55:30;1.27;;;0.40;;
10725;SDS011;5414;59.782;16.378;2023-03-01T16:57:56;0.60;;;0.37;;
10725;SDS011;5414;59.782;16.378;2023-03-01T17:00:22;0.83;;;0.30;;
10725;SDS011;5414;59.782;16.378;2023-03-01T17:02:48;0.40;;;0.40;;
10725;SDS011;5414;59.782;16.378;2023-03-01T17:05:14;1.27;;;0.40;;